createdAt,value
2018-12-26T00:02:29.442Z,-1.30
2018-12-26T00:05:17.622Z,-1.30
2018-12-26T00:07:58.894Z,-1.40
2018-12-26T00:10:39.575Z,-1.40
2018-12-26T00:13:20.457Z,-1.40
2018-12-26T00:16:01.121Z,-1.40
2018-12-26T00:18:41.904Z,-1.40
2018-12-26T00:21:22.471Z,-1.40
2018-12-26T00:24:03.636Z,-1.40
2018-12-26T00:26:44.265Z,-1.40
2018-12-26T00:29:25.142Z,-1.50
2018-12-26T00:32:05.940Z,-1.50
2018-12-26T00:34:46.785Z,-1.50
2018-12-26T00:37:27.896Z,-1.50
2018-12-26T00:40:08.800Z,-1.50
2018-12-26T00:42:49.928Z,-1.40
2018-12-26T00:45:30.748Z,-1.40
2018-12-26T00:48:11.366Z,-1.40
2018-12-26T00:50:52.277Z,-1.40
2018-12-26T00:53:21.224Z,-1.40
2018-12-26T00:59:09.202Z,-1.50
2018-12-26T01:01:49.690Z,-1.50
2018-12-26T01:04:37.761Z,-1.50
2018-12-26T01:07:06.677Z,-1.50
2018-12-26T01:09:54.820Z,-1.50
2018-12-26T01:12:35.924Z,-1.50
2018-12-26T01:15:17.094Z,-1.50
2018-12-26T01:17:58.309Z,-1.50
2018-12-26T01:20:38.917Z,-1.50
2018-12-26T01:23:19.688Z,-1.50
2018-12-26T01:26:00.537Z,-1.50
2018-12-26T01:28:41.500Z,-1.50
2018-12-26T01:31:22.281Z,-1.50
2018-12-26T01:34:10.360Z,-1.50
2018-12-26T01:36:58.477Z,-1.50
2018-12-26T01:42:40.804Z,-1.60
2018-12-26T01:45:21.677Z,-1.60
2018-12-26T01:48:02.824Z,-1.70
2018-12-26T01:50:43.524Z,-1.70
2018-12-26T01:53:24.333Z,-1.70
2018-12-26T01:56:05.158Z,-1.80
2018-12-26T01:58:46.331Z,-1.80
2018-12-26T02:01:26.977Z,-1.80
2018-12-26T02:04:07.839Z,-1.90
2018-12-26T02:06:48.537Z,-1.90
2018-12-26T02:09:29.432Z,-1.90
2018-12-26T02:12:10.138Z,-1.90
2018-12-26T02:14:51.188Z,-1.90
2018-12-26T02:17:31.956Z,-1.90
2018-12-26T02:20:12.524Z,-1.90
2018-12-26T02:22:51.708Z,-1.90
2018-12-26T02:28:33.793Z,-1.80
2018-12-26T02:31:14.115Z,-1.80
2018-12-26T02:33:54.908Z,-1.80
2018-12-26T02:36:35.568Z,-1.80
2018-12-26T02:39:16.278Z,-1.90
2018-12-26T02:48:07.561Z,-1.60
2018-12-26T02:50:48.103Z,-1.70
2018-12-26T02:53:28.762Z,-1.70
2018-12-26T02:56:09.617Z,-1.70
2018-12-26T02:58:50.365Z,-1.70
2018-12-26T03:01:38.348Z,-1.70
2018-12-26T03:07:13.353Z,-1.60
2018-12-26T03:09:54.504Z,-1.50
2018-12-26T03:12:35.185Z,-1.50
2018-12-26T03:15:16.081Z,-1.40
2018-12-26T03:17:56.660Z,-1.40
2018-12-26T03:23:19.925Z,-1.30
2018-12-26T03:26:08.080Z,-1.30
2018-12-26T03:28:49.651Z,-1.30
2018-12-26T03:31:30.077Z,-1.30
2018-12-26T03:34:10.924Z,-1.30
2018-12-26T03:36:51.561Z,-1.30
2018-12-26T03:39:32.293Z,-1.40
2018-12-26T03:42:13.233Z,-1.40
2018-12-26T03:44:54.057Z,-1.50
2018-12-26T03:47:34.810Z,-1.50
2018-12-26T03:50:15.774Z,-1.50
2018-12-26T03:52:56.550Z,-1.50
2018-12-26T03:55:37.401Z,-1.50
2018-12-26T03:58:18.145Z,-1.60
2018-12-26T04:00:59.096Z,-1.60
2018-12-26T04:03:28.096Z,-1.60
2018-12-26T04:06:16.237Z,-1.60
2018-12-26T04:12:06.258Z,-1.70
2018-12-26T04:14:47.242Z,-1.70
2018-12-26T04:17:28.229Z,-1.70
2018-12-26T04:20:08.983Z,-1.80
2018-12-26T04:22:49.818Z,-1.80
2018-12-26T04:25:30.509Z,-1.80
2018-12-26T04:28:11.569Z,-1.90
2018-12-26T04:30:52.557Z,-1.90
2018-12-26T04:33:33.338Z,-1.90
2018-12-26T04:36:14.464Z,-2.00
2018-12-26T04:38:55.301Z,-1.90
2018-12-26T04:41:36.222Z,-2.00
2018-12-26T04:44:05.237Z,-2.00
2018-12-26T04:46:53.357Z,-2.00
2018-12-26T04:49:34.458Z,-2.00
2018-12-26T04:52:14.900Z,-2.00
2018-12-26T04:54:56.447Z,-2.00
2018-12-26T04:57:37.832Z,-2.00
2018-12-26T05:00:18.557Z,-2.00
2018-12-26T05:02:59.268Z,-2.00
2018-12-26T05:05:40.202Z,-2.00
2018-12-26T05:08:21.046Z,-2.00
2018-12-26T05:11:01.768Z,-2.00
2018-12-26T05:13:42.427Z,-2.00
2018-12-26T05:16:23.218Z,-2.00
2018-12-26T05:19:04.016Z,-1.90
2018-12-26T05:21:44.813Z,-1.90
2018-12-26T05:24:25.693Z,-1.90
2018-12-26T05:27:06.544Z,-1.80
2018-12-26T05:29:48.133Z,-1.80
2018-12-26T05:32:29.224Z,-1.70
2018-12-26T05:35:10.477Z,-1.70
2018-12-26T05:37:51.472Z,-1.70
2018-12-26T05:40:34.966Z,-1.70
2018-12-26T05:43:15.824Z,-1.70
2018-12-26T05:45:56.700Z,-1.70
2018-12-26T05:48:37.750Z,-1.70
2018-12-26T05:51:18.460Z,-1.70
2018-12-26T05:53:59.096Z,-1.70
2018-12-26T05:56:40.314Z,-1.70
2018-12-26T05:59:09.220Z,-1.70
2018-12-26T06:01:50.367Z,-1.70
2018-12-26T06:04:31.016Z,-1.60
2018-12-26T06:07:12.032Z,-1.60
2018-12-26T06:09:52.785Z,-1.70
2018-12-26T06:12:33.617Z,-1.70
2018-12-26T06:15:14.205Z,-1.70
2018-12-26T06:17:55.164Z,-1.70
2018-12-26T06:20:36.248Z,-1.70
2018-12-26T06:23:17.305Z,-1.70
2018-12-26T06:25:57.677Z,-1.80
2018-12-26T06:28:38.485Z,-1.80
2018-12-26T06:31:19.237Z,-1.80
2018-12-26T06:33:59.628Z,-1.80
2018-12-26T06:36:40.385Z,-1.90
2018-12-26T06:39:21.279Z,-1.90
2018-12-26T06:42:01.850Z,-1.90
2018-12-26T06:44:42.888Z,-2.00
2018-12-26T06:47:23.894Z,-2.00
2018-12-26T06:50:05.133Z,-2.00
2018-12-26T06:52:45.942Z,-2.00
2018-12-26T06:55:26.670Z,-2.10
2018-12-26T06:58:07.559Z,-2.10
2018-12-26T07:00:48.581Z,-2.10
2018-12-26T07:03:29.408Z,-2.10
2018-12-26T07:06:08.605Z,-2.10
2018-12-26T07:08:56.716Z,-2.10
2018-12-26T07:11:37.601Z,-2.10
2018-12-26T07:14:18.341Z,-2.10
2018-12-26T07:16:59.406Z,-2.10
2018-12-26T07:19:40.338Z,-2.10
2018-12-26T07:22:20.757Z,-2.10
2018-12-26T07:25:01.176Z,-2.00
2018-12-26T07:27:41.973Z,-1.90
2018-12-26T07:30:22.749Z,-1.90
2018-12-26T07:33:03.997Z,-1.90
2018-12-26T07:35:33.070Z,-1.90
2018-12-26T07:38:21.176Z,-1.90
2018-12-26T07:41:02.395Z,-1.90
2018-12-26T07:43:42.971Z,-1.90
2018-12-26T07:46:23.762Z,-1.90
2018-12-26T07:49:04.304Z,-1.90
2018-12-26T07:51:44.642Z,-1.90
2018-12-26T07:54:25.826Z,-1.90
2018-12-26T07:57:06.944Z,-1.90
2018-12-26T07:59:47.272Z,-1.90
2018-12-26T08:02:28.220Z,-1.90
2018-12-26T08:05:09.048Z,-1.90
2018-12-26T08:07:50.196Z,-1.90
2018-12-26T08:10:31.424Z,-1.90
2018-12-26T08:13:12.042Z,-1.80
2018-12-26T08:15:53.134Z,-1.80
2018-12-26T08:18:21.956Z,-1.80
2018-12-26T08:21:10.108Z,-1.80
2018-12-26T08:23:51.151Z,-1.80
2018-12-26T08:26:32.156Z,-1.80
2018-12-26T08:29:13.197Z,-1.70
2018-12-26T08:31:53.869Z,-1.70
2018-12-26T08:34:34.459Z,-1.60
2018-12-26T08:37:15.486Z,-1.60
2018-12-26T08:39:56.376Z,-1.60
2018-12-26T08:42:38.045Z,-1.50
2018-12-26T08:45:17.491Z,-1.50
2018-12-26T08:48:05.696Z,-1.40
2018-12-26T08:50:34.817Z,-1.40
2018-12-26T08:56:23.181Z,-1.30
2018-12-26T08:59:04.324Z,-1.30
2018-12-26T09:01:45.169Z,-1.20
2018-12-26T09:04:25.996Z,-1.10
2018-12-26T09:07:06.832Z,-1.00
2018-12-26T09:09:47.225Z,-0.90
2018-12-26T09:12:28.121Z,-0.70
2018-12-26T09:15:09.151Z,-0.60
2018-12-26T09:17:49.916Z,-0.50
2018-12-26T09:20:30.875Z,-0.40
2018-12-26T09:23:11.526Z,-0.20
2018-12-26T09:25:52.397Z,-0.20
2018-12-26T09:28:33.211Z,-0.10
2018-12-26T09:31:14.038Z,0.00
2018-12-26T09:33:42.860Z,0.10
2018-12-26T09:36:30.901Z,0.20
2018-12-26T09:39:18.947Z,0.30
2018-12-26T09:44:55.060Z,1.00
2018-12-26T09:47:43.076Z,1.60
2018-12-26T09:50:31.607Z,2.30
2018-12-26T09:53:12.348Z,2.90
2018-12-26T09:55:53.215Z,3.30
2018-12-26T09:58:34.105Z,3.40
2018-12-26T10:01:03.021Z,3.50
2018-12-26T10:03:51.037Z,3.50
2018-12-26T10:06:31.852Z,3.40
2018-12-26T10:09:12.662Z,3.10
2018-12-26T10:11:53.733Z,2.90
2018-12-26T10:14:34.384Z,2.60
2018-12-26T10:17:15.177Z,2.40
2018-12-26T10:19:55.860Z,2.30
2018-12-26T10:22:36.484Z,2.20
2018-12-26T10:25:17.324Z,2.30
2018-12-26T10:27:58.020Z,2.60
2018-12-26T10:30:38.896Z,3.20
2018-12-26T10:33:19.740Z,3.80
2018-12-26T10:36:00.555Z,4.30
2018-12-26T10:38:41.295Z,4.50
2018-12-26T10:41:22.120Z,4.50
2018-12-26T10:44:03.040Z,4.30
2018-12-26T10:46:44.228Z,4.00
2018-12-26T10:49:24.969Z,3.70
2018-12-26T10:52:06.095Z,3.50
2018-12-26T10:54:47.021Z,3.30
2018-12-26T10:57:28.025Z,3.20
2018-12-26T11:00:08.753Z,3.10
2018-12-26T11:02:49.209Z,3.00
2018-12-26T11:05:29.970Z,2.90
2018-12-26T11:08:10.593Z,2.90
2018-12-26T11:10:51.393Z,2.90
2018-12-26T11:13:32.292Z,2.80
2018-12-26T11:16:13.348Z,2.80
2018-12-26T11:18:54.012Z,2.80
2018-12-26T11:21:35.156Z,2.80
2018-12-26T11:24:15.900Z,2.80
2018-12-26T11:26:56.735Z,2.80
2018-12-26T11:29:37.600Z,2.80
2018-12-26T11:32:18.790Z,2.80
2018-12-26T11:34:59.471Z,2.80
2018-12-26T11:37:39.989Z,2.80
2018-12-26T11:40:21.061Z,2.80
2018-12-26T11:43:01.777Z,2.80
2018-12-26T11:45:42.457Z,2.80
2018-12-26T11:48:23.222Z,2.90
2018-12-26T11:51:03.989Z,2.90
2018-12-26T11:53:44.967Z,3.00
2018-12-26T11:56:25.711Z,3.00
2018-12-26T11:58:54.644Z,3.10
2018-12-26T12:01:42.776Z,3.10
2018-12-26T12:04:23.813Z,3.20
2018-12-26T12:07:11.840Z,3.20
2018-12-26T12:09:52.956Z,3.30
2018-12-26T12:12:33.845Z,3.40
2018-12-26T12:15:15.220Z,3.50
2018-12-26T12:17:55.942Z,3.50
2018-12-26T12:20:37.260Z,3.60
2018-12-26T12:23:17.963Z,3.70
2018-12-26T12:25:58.746Z,3.80
2018-12-26T12:28:40.004Z,3.80
2018-12-26T12:31:20.384Z,3.90
2018-12-26T12:34:01.226Z,4.00
2018-12-26T12:36:42.129Z,4.10
2018-12-26T12:39:23.331Z,4.30
2018-12-26T12:42:04.357Z,4.50
2018-12-26T12:44:45.134Z,4.70
2018-12-26T12:47:25.507Z,4.80
2018-12-26T12:50:06.564Z,4.90
2018-12-26T12:52:48.673Z,5.00
2018-12-26T12:55:29.515Z,5.10
2018-12-26T12:57:58.511Z,5.20
2018-12-26T13:00:46.584Z,5.20
2018-12-26T13:03:34.668Z,5.30
2018-12-26T13:12:18.352Z,5.60
2018-12-26T13:14:58.916Z,5.50
2018-12-26T13:17:39.714Z,5.40
2018-12-26T13:20:20.451Z,5.40
2018-12-26T13:23:01.596Z,5.40
2018-12-26T13:25:42.586Z,5.40
2018-12-26T13:28:23.280Z,5.40
2018-12-26T13:31:05.034Z,5.40
2018-12-26T13:33:46.163Z,5.40
2018-12-26T13:36:27.484Z,5.30
2018-12-26T13:39:08.102Z,5.30
2018-12-26T13:41:48.982Z,5.30
2018-12-26T13:44:30.137Z,5.20
2018-12-26T13:47:17.080Z,5.20
2018-12-26T13:49:58.214Z,5.10
2018-12-26T13:52:39.410Z,5.10
2018-12-26T13:55:20.202Z,5.00
2018-12-26T13:58:01.189Z,4.90
2018-12-26T14:00:42.148Z,4.80
2018-12-26T14:03:22.824Z,4.70
2018-12-26T14:06:04.005Z,4.60
2018-12-26T14:08:46.800Z,4.60
2018-12-26T14:11:15.749Z,4.50
2018-12-26T14:13:44.614Z,4.40
2018-12-26T14:16:32.811Z,4.40
2018-12-26T14:19:20.836Z,4.30
2018-12-26T14:22:01.304Z,4.30
2018-12-26T14:24:41.752Z,4.20
2018-12-26T14:27:10.734Z,4.10
2018-12-26T14:29:58.968Z,4.10
2018-12-26T14:32:40.387Z,4.10
2018-12-26T14:35:20.781Z,4.00
2018-12-26T14:38:01.530Z,4.00
2018-12-26T14:40:42.503Z,4.00
2018-12-26T14:43:23.042Z,3.90
2018-12-26T14:46:03.765Z,3.90
2018-12-26T14:48:44.764Z,3.80
2018-12-26T14:51:13.758Z,3.70
2018-12-26T14:53:42.796Z,3.70
2018-12-26T14:56:32.900Z,3.60
2018-12-26T14:59:13.446Z,3.50
2018-12-26T15:01:54.309Z,3.40
2018-12-26T15:04:35.023Z,3.30
2018-12-26T15:07:04.026Z,3.20
2018-12-26T15:09:52.377Z,3.10
2018-12-26T15:12:33.123Z,3.00
2018-12-26T15:15:13.917Z,3.00
2018-12-26T15:17:54.910Z,2.90
2018-12-26T15:20:35.805Z,2.80
2018-12-26T15:23:16.737Z,2.70
2018-12-26T15:25:57.337Z,2.60
2018-12-26T15:28:38.148Z,2.60
2018-12-26T15:31:18.812Z,2.50
2018-12-26T15:33:59.828Z,2.50
2018-12-26T15:36:40.382Z,2.40
2018-12-26T15:39:21.254Z,2.30
2018-12-26T15:42:02.048Z,2.20
2018-12-26T15:44:43.037Z,2.20
2018-12-26T15:47:23.727Z,2.10
2018-12-26T15:49:52.967Z,2.00
2018-12-26T15:52:41.024Z,1.90
2018-12-26T15:55:29.268Z,1.90
2018-12-26T15:58:10.146Z,1.80
2018-12-26T16:00:50.811Z,1.70
2018-12-26T16:03:31.324Z,1.70
2018-12-26T16:06:12.056Z,1.60
2018-12-26T16:08:52.532Z,1.60
2018-12-26T16:11:33.781Z,1.50
2018-12-26T16:14:14.219Z,1.50
2018-12-26T16:16:54.765Z,1.50
2018-12-26T16:19:35.346Z,1.40
2018-12-26T16:22:16.449Z,1.40
2018-12-26T16:24:57.228Z,1.30
2018-12-26T16:27:38.004Z,1.30
2018-12-26T16:30:20.556Z,1.20
2018-12-26T16:33:00.929Z,1.20
2018-12-26T16:35:41.785Z,1.20
2018-12-26T16:38:22.489Z,1.10
2018-12-26T16:41:03.750Z,1.10
2018-12-26T16:43:44.575Z,1.10
2018-12-26T16:46:25.234Z,1.00
2018-12-26T16:49:05.924Z,1.00
2018-12-26T16:51:46.813Z,1.00
2018-12-26T16:54:27.549Z,0.90
2018-12-26T16:57:08.253Z,0.90
2018-12-26T16:59:49.245Z,0.90
2018-12-26T17:02:29.848Z,0.80
2018-12-26T17:05:10.660Z,0.80
2018-12-26T17:07:51.433Z,0.80
2018-12-26T17:10:32.257Z,0.70
2018-12-26T17:13:12.985Z,0.70
2018-12-26T17:15:54.064Z,0.70
2018-12-26T17:18:34.665Z,0.60
2018-12-26T17:21:15.869Z,0.60
2018-12-26T17:23:56.662Z,0.50
2018-12-26T17:26:36.993Z,0.50
2018-12-26T17:29:17.807Z,0.50
2018-12-26T17:31:46.797Z,0.50
2018-12-26T17:34:27.208Z,0.50
2018-12-26T17:37:08.245Z,0.50
2018-12-26T17:39:48.941Z,0.50
2018-12-26T17:42:30.032Z,0.40
2018-12-26T17:45:11.112Z,0.40
2018-12-26T17:47:52.423Z,0.40
2018-12-26T17:50:32.990Z,0.40
2018-12-26T17:53:13.892Z,0.40
2018-12-26T17:55:54.600Z,0.30
2018-12-26T17:58:35.585Z,0.30
2018-12-26T18:01:16.116Z,0.30
2018-12-26T18:03:56.996Z,0.30
2018-12-26T18:06:37.483Z,0.20
2018-12-26T18:09:27.696Z,0.20
2018-12-26T18:12:16.096Z,0.20
2018-12-26T18:14:57.087Z,0.10
2018-12-26T18:17:37.853Z,0.10
2018-12-26T18:20:18.692Z,0.10
2018-12-26T18:25:21.835Z,0.10
2018-12-26T18:28:09.953Z,0.10
2018-12-26T18:30:58.056Z,0.10
2018-12-26T18:33:38.472Z,0.10
2018-12-26T18:36:19.103Z,0.10
2018-12-26T18:39:00.148Z,0.00
2018-12-26T18:41:40.725Z,0.10
2018-12-26T18:44:09.624Z,0.00
2018-12-26T18:46:57.712Z,0.00
2018-12-26T18:49:26.636Z,0.00
2018-12-26T18:52:14.744Z,-0.10
2018-12-26T18:54:55.257Z,-0.10
2018-12-26T18:57:36.059Z,-0.10
2018-12-26T19:05:55.877Z,-0.10
2018-12-26T19:08:37.071Z,-0.10
2018-12-26T19:11:18.160Z,-0.20
2018-12-26T19:13:59.137Z,-0.20
2018-12-26T19:16:39.660Z,-0.20
2018-12-26T19:19:20.800Z,-0.20
2018-12-26T19:22:01.631Z,-0.20
2018-12-26T19:24:42.565Z,-0.30
2018-12-26T19:27:23.212Z,-0.30
2018-12-26T19:30:03.632Z,-0.20
2018-12-26T19:32:44.213Z,-0.20
2018-12-26T19:35:25.472Z,-0.20
2018-12-26T19:38:06.339Z,-0.20
2018-12-26T19:40:46.808Z,-0.20
2018-12-26T19:43:27.206Z,-0.30
2018-12-26T19:46:08.240Z,-0.30
2018-12-26T19:48:49.198Z,-0.30
2018-12-26T19:51:28.429Z,-0.30
2018-12-26T19:54:09.142Z,-0.40
2018-12-26T19:56:49.989Z,-0.40
2018-12-26T19:59:30.721Z,-0.30
2018-12-26T20:02:11.130Z,-0.40
2018-12-26T20:04:54.746Z,-0.40
2018-12-26T20:07:35.937Z,-0.40
2018-12-26T20:10:16.986Z,-0.40
2018-12-26T20:12:57.313Z,-0.40
2018-12-26T20:15:38.355Z,-0.50
2018-12-26T20:18:19.276Z,-0.50
2018-12-26T20:21:03.778Z,-0.50
2018-12-26T20:23:44.978Z,-0.50
2018-12-26T20:26:25.481Z,-0.50
2018-12-26T20:29:06.737Z,-0.50
2018-12-26T20:31:47.360Z,-0.50
2018-12-26T20:34:27.644Z,-0.60
2018-12-26T20:37:08.468Z,-0.60
2018-12-26T20:39:49.368Z,-0.60
2018-12-26T20:42:30.272Z,-0.60
2018-12-26T20:45:11.217Z,-0.60
2018-12-26T20:47:52.213Z,-0.60
2018-12-26T20:50:33.107Z,-0.60
2018-12-26T20:53:13.912Z,-0.60
2018-12-26T20:55:54.939Z,-0.60
2018-12-26T20:58:35.823Z,-0.70
2018-12-26T21:01:16.557Z,-0.70
2018-12-26T21:03:45.507Z,-0.70
2018-12-26T21:06:33.669Z,-0.60
2018-12-26T21:09:21.772Z,-0.60
2018-12-26T21:12:03.004Z,-0.60
2018-12-26T21:14:43.756Z,-0.70
2018-12-26T21:17:24.565Z,-0.70
2018-12-26T21:20:05.296Z,-0.70
2018-12-26T21:22:46.140Z,-0.70
2018-12-26T21:25:27.022Z,-0.70
2018-12-26T21:28:07.984Z,-0.70
2018-12-26T21:33:31.108Z,-0.70
2018-12-26T21:36:19.275Z,-0.70
2018-12-26T21:39:01.385Z,-0.70
2018-12-26T21:41:41.872Z,-0.70
2018-12-26T21:44:22.670Z,-0.70
2018-12-26T21:46:51.619Z,-0.70
2018-12-26T21:49:39.733Z,-0.70
2018-12-26T21:52:20.361Z,-0.60
2018-12-26T21:55:01.406Z,-0.60
2018-12-26T21:57:42.128Z,-0.70
2018-12-26T22:00:22.901Z,-0.60
2018-12-26T22:03:04.139Z,-0.60
2018-12-26T22:05:45.207Z,-0.60
2018-12-26T22:08:25.838Z,-0.60
2018-12-26T22:14:05.231Z,-0.60
2018-12-26T22:16:46.119Z,-0.60
2018-12-26T22:19:27.044Z,-0.50
2018-12-26T22:22:07.647Z,-0.50
2018-12-26T22:24:48.448Z,-0.50
2018-12-26T22:27:29.592Z,-0.50
2018-12-26T22:30:11.833Z,-0.50
2018-12-26T22:32:52.752Z,-0.50
2018-12-26T22:35:33.321Z,-0.40
2018-12-26T22:38:14.176Z,-0.40
2018-12-26T22:40:54.967Z,-0.40
2018-12-26T22:43:23.808Z,-0.40
2018-12-26T22:46:11.943Z,-0.40
2018-12-26T22:48:40.760Z,-0.40
2018-12-26T22:51:28.795Z,-0.30
2018-12-26T22:54:09.876Z,-0.30
2018-12-26T22:56:50.442Z,-0.30
2018-12-26T22:59:31.221Z,-0.30
2018-12-26T23:02:19.333Z,-0.30
2018-12-26T23:05:07.695Z,-0.20
2018-12-26T23:07:48.769Z,-0.20
2018-12-26T23:10:17.680Z,-0.20
2018-12-26T23:13:05.795Z,-0.20
2018-12-26T23:15:54.108Z,-0.20
2018-12-26T23:18:34.662Z,-0.10
2018-12-26T23:21:03.487Z,-0.10
2018-12-26T23:23:51.572Z,-0.10
2018-12-26T23:26:32.302Z,-0.10
2018-12-26T23:29:12.891Z,0.00
2018-12-26T23:31:54.890Z,0.10
2018-12-26T23:34:36.029Z,0.20
2018-12-26T23:37:16.392Z,0.30
2018-12-26T23:39:57.273Z,0.40
2018-12-26T23:42:38.088Z,0.50
2018-12-26T23:45:19.430Z,0.60
2018-12-26T23:48:00.558Z,0.60
2018-12-26T23:50:41.421Z,0.70
2018-12-26T23:53:22.338Z,0.70
2018-12-26T23:56:03.408Z,0.80
2018-12-26T23:58:44.330Z,0.80
